createdAt,value
2019-06-26T00:02:41.621Z,28.20
2019-06-26T00:05:31.926Z,28.20
2019-06-26T00:08:20.426Z,28.10
2019-06-26T00:11:09.269Z,28.00
2019-06-26T00:13:58.370Z,28.00
2019-06-26T00:16:47.316Z,27.90
2019-06-26T00:19:36.576Z,27.90
2019-06-26T00:22:26.002Z,27.90
2019-06-26T00:25:14.697Z,27.90
2019-06-26T00:28:03.614Z,27.80
2019-06-26T00:30:52.392Z,27.80
2019-06-26T00:33:40.966Z,27.60
2019-06-26T00:36:30.794Z,27.60
2019-06-26T00:39:20.147Z,27.50
2019-06-26T00:42:08.879Z,27.40
2019-06-26T00:44:58.705Z,27.40
2019-06-26T00:47:47.130Z,27.30
2019-06-26T00:50:36.383Z,27.20
2019-06-26T00:53:25.769Z,27.20
2019-06-26T00:56:14.251Z,27.20
2019-06-26T00:59:03.057Z,27.20
2019-06-26T01:01:51.981Z,27.10
2019-06-26T01:04:43.694Z,27.10
2019-06-26T01:07:33.325Z,27.10
2019-06-26T01:10:23.909Z,27.10
2019-06-26T01:13:12.725Z,27.10
2019-06-26T01:16:01.472Z,27.10
2019-06-26T01:18:50.485Z,27.10
2019-06-26T01:21:38.729Z,27.10
2019-06-26T01:24:27.692Z,27.10
2019-06-26T01:27:16.520Z,27.10
2019-06-26T01:30:06.021Z,27.10
2019-06-26T01:32:54.566Z,27.00
2019-06-26T01:35:43.644Z,27.00
2019-06-26T01:38:32.846Z,27.00
2019-06-26T01:41:21.998Z,26.90
2019-06-26T01:44:15.257Z,26.90
2019-06-26T01:47:01.346Z,26.90
2019-06-26T01:49:50.731Z,26.80
2019-06-26T01:52:39.369Z,26.70
2019-06-26T01:55:28.056Z,26.70
2019-06-26T01:58:17.022Z,26.70
2019-06-26T02:01:06.023Z,26.60
2019-06-26T02:03:54.739Z,26.60
2019-06-26T02:06:43.763Z,26.60
2019-06-26T02:09:32.244Z,26.60
2019-06-26T02:12:21.389Z,26.60
2019-06-26T02:15:10.729Z,26.50
2019-06-26T02:18:00.006Z,26.50
2019-06-26T02:20:49.087Z,26.40
2019-06-26T02:23:38.674Z,26.40
2019-06-26T02:26:27.726Z,26.40
2019-06-26T02:29:17.218Z,26.40
2019-06-26T02:32:05.914Z,26.40
2019-06-26T02:34:54.857Z,26.40
2019-06-26T02:37:43.910Z,26.40
2019-06-26T02:40:33.013Z,26.40
2019-06-26T02:43:22.099Z,26.40
2019-06-26T02:46:11.031Z,26.30
2019-06-26T02:49:00.142Z,26.30
2019-06-26T02:51:49.147Z,26.20
2019-06-26T02:54:38.662Z,26.20
2019-06-26T02:57:27.681Z,26.20
2019-06-26T03:00:16.747Z,26.20
2019-06-26T03:03:06.004Z,26.10
2019-06-26T03:05:55.033Z,26.10
2019-06-26T03:08:45.282Z,26.10
2019-06-26T03:11:33.817Z,26.10
2019-06-26T03:14:23.075Z,26.10
2019-06-26T03:17:12.296Z,26.00
2019-06-26T03:20:01.571Z,26.00
2019-06-26T03:22:50.040Z,25.90
2019-06-26T03:25:39.511Z,25.90
2019-06-26T03:28:28.265Z,25.90
2019-06-26T03:31:17.067Z,25.90
2019-06-26T03:34:05.879Z,25.90
2019-06-26T03:36:54.580Z,25.90
2019-06-26T03:39:43.255Z,25.90
2019-06-26T03:42:32.318Z,25.90
2019-06-26T03:45:26.241Z,25.80
2019-06-26T03:48:12.034Z,25.80
2019-06-26T03:51:00.750Z,25.80
2019-06-26T03:53:49.641Z,25.80
2019-06-26T03:56:38.835Z,25.70
2019-06-26T03:59:28.350Z,25.70
2019-06-26T04:02:17.714Z,25.80
2019-06-26T04:05:06.714Z,25.80
2019-06-26T04:07:56.029Z,25.80
2019-06-26T04:10:44.552Z,25.80
2019-06-26T04:13:33.377Z,25.80
2019-06-26T04:16:22.725Z,25.80
2019-06-26T04:19:11.529Z,25.70
2019-06-26T04:22:00.346Z,25.70
2019-06-26T04:24:49.032Z,25.70
2019-06-26T04:27:38.312Z,25.60
2019-06-26T04:30:27.133Z,25.50
2019-06-26T04:33:15.849Z,25.50
2019-06-26T04:36:04.529Z,25.50
2019-06-26T04:38:53.195Z,25.40
2019-06-26T04:41:41.929Z,25.50
2019-06-26T04:44:30.957Z,25.40
2019-06-26T04:47:19.333Z,25.00
2019-06-26T04:49:55.875Z,24.80
2019-06-26T04:52:26.084Z,24.60
2019-06-26T04:54:56.289Z,24.50
2019-06-26T04:57:26.367Z,24.50
2019-06-26T04:59:56.622Z,24.40
2019-06-26T05:02:26.980Z,24.40
2019-06-26T05:04:57.089Z,24.40
2019-06-26T05:07:27.180Z,24.50
2019-06-26T05:09:57.402Z,24.50
2019-06-26T05:12:27.572Z,24.60
2019-06-26T05:14:57.704Z,24.50
2019-06-26T05:17:28.771Z,24.60
2019-06-26T05:19:58.687Z,24.70
2019-06-26T05:22:30.378Z,24.80
2019-06-26T05:25:00.611Z,24.80
2019-06-26T05:27:30.746Z,24.90
2019-06-26T05:30:21.138Z,24.90
2019-06-26T05:33:10.062Z,25.00
2019-06-26T05:35:59.191Z,25.00
2019-06-26T05:38:29.432Z,25.00
2019-06-26T05:40:59.486Z,25.00
2019-06-26T05:43:29.809Z,24.90
2019-06-26T05:45:59.751Z,24.90
2019-06-26T05:48:29.846Z,24.90
2019-06-26T05:50:59.777Z,25.00
2019-06-26T05:53:48.241Z,25.00
2019-06-26T05:56:36.862Z,25.00
2019-06-26T05:59:25.471Z,25.10
2019-06-26T06:02:14.504Z,25.10
2019-06-26T06:05:03.601Z,25.10
2019-06-26T06:07:33.692Z,25.10
2019-06-26T06:10:04.193Z,25.20
2019-06-26T06:12:34.331Z,25.20
2019-06-26T06:15:04.736Z,25.20
2019-06-26T06:17:54.080Z,25.20
2019-06-26T06:20:43.248Z,25.20
2019-06-26T06:23:32.413Z,25.20
2019-06-26T06:26:21.162Z,25.20
2019-06-26T06:29:10.552Z,25.10
2019-06-26T06:31:59.765Z,25.10
2019-06-26T06:34:49.086Z,25.20
2019-06-26T06:37:38.135Z,25.20
2019-06-26T06:40:27.352Z,25.10
2019-06-26T06:43:16.165Z,25.00
2019-06-26T06:46:05.625Z,25.00
2019-06-26T06:48:54.755Z,25.00
2019-06-26T06:51:43.572Z,25.00
2019-06-26T06:54:32.641Z,25.00
2019-06-26T06:57:21.767Z,25.00
2019-06-26T07:00:11.186Z,25.00
2019-06-26T07:03:00.395Z,25.00
2019-06-26T07:05:49.515Z,25.00
2019-06-26T07:08:38.874Z,25.00
2019-06-26T07:11:28.377Z,25.10
2019-06-26T07:14:17.537Z,25.10
2019-06-26T07:17:19.943Z,25.20
2019-06-26T07:19:57.628Z,25.20
2019-06-26T07:22:46.791Z,25.20
2019-06-26T07:25:36.716Z,25.20
2019-06-26T07:28:26.715Z,25.20
2019-06-26T07:31:15.581Z,25.30
2019-06-26T07:34:04.484Z,25.30
2019-06-26T07:36:53.743Z,25.40
2019-06-26T07:39:42.564Z,25.40
2019-06-26T07:42:32.311Z,25.40
2019-06-26T07:45:24.029Z,25.50
2019-06-26T07:48:11.786Z,25.40
2019-06-26T07:51:01.376Z,25.40
2019-06-26T07:53:50.475Z,25.40
2019-06-26T07:56:39.278Z,25.40
2019-06-26T07:59:28.705Z,25.40
2019-06-26T08:02:17.505Z,25.40
2019-06-26T08:05:06.904Z,25.50
2019-06-26T08:07:56.311Z,25.50
2019-06-26T08:10:45.382Z,25.60
2019-06-26T08:13:34.760Z,25.60
2019-06-26T08:16:24.242Z,25.70
2019-06-26T08:19:13.942Z,25.80
2019-06-26T08:22:03.770Z,25.80
2019-06-26T08:24:52.952Z,25.80
2019-06-26T08:27:42.096Z,25.90
2019-06-26T08:30:31.662Z,25.90
2019-06-26T08:33:20.695Z,25.80
2019-06-26T08:36:09.951Z,25.90
2019-06-26T08:38:58.655Z,25.90
2019-06-26T08:41:47.391Z,26.00
2019-06-26T08:44:17.349Z,26.00
2019-06-26T08:46:47.491Z,26.00
2019-06-26T08:49:25.329Z,26.10
2019-06-26T08:51:49.348Z,26.10
2019-06-26T08:54:19.447Z,26.10
2019-06-26T08:56:49.789Z,26.10
2019-06-26T08:59:19.764Z,26.20
2019-06-26T09:01:49.976Z,26.20
2019-06-26T09:04:19.968Z,26.20
2019-06-26T09:06:50.389Z,26.20
2019-06-26T09:09:20.674Z,26.20
2019-06-26T09:11:50.985Z,26.30
2019-06-26T09:14:21.437Z,26.30
2019-06-26T09:16:51.814Z,26.30
2019-06-26T09:19:21.943Z,26.30
2019-06-26T09:21:52.073Z,26.40
2019-06-26T09:24:22.102Z,26.40
2019-06-26T09:26:52.989Z,26.50
2019-06-26T09:29:24.147Z,26.50
2019-06-26T09:31:54.375Z,26.50
2019-06-26T09:34:24.393Z,26.60
2019-06-26T09:36:54.450Z,26.70
2019-06-26T09:39:24.633Z,26.70
2019-06-26T09:41:54.991Z,26.70
2019-06-26T09:44:25.234Z,26.70
2019-06-26T09:46:55.436Z,26.80
2019-06-26T09:49:25.595Z,26.80
2019-06-26T09:51:55.963Z,26.90
2019-06-26T09:54:26.906Z,26.90
2019-06-26T09:56:56.912Z,26.90
2019-06-26T09:59:26.907Z,27.00
2019-06-26T10:01:57.049Z,27.00
2019-06-26T10:04:27.690Z,27.10
2019-06-26T10:06:57.847Z,27.10
2019-06-26T10:09:27.958Z,27.10
2019-06-26T10:11:58.108Z,27.20
2019-06-26T10:14:46.166Z,27.20
2019-06-26T10:17:00.301Z,27.30
2019-06-26T10:19:30.578Z,27.30
2019-06-26T10:22:00.745Z,27.30
2019-06-26T10:24:31.090Z,27.30
2019-06-26T10:27:01.107Z,27.30
2019-06-26T10:29:31.316Z,27.30
2019-06-26T10:32:20.465Z,27.30
2019-06-26T10:35:09.512Z,27.30
2019-06-26T10:37:59.164Z,27.40
2019-06-26T10:40:48.272Z,27.40
2019-06-26T10:43:37.370Z,27.50
2019-06-26T10:46:26.658Z,27.50
2019-06-26T10:49:26.558Z,27.60
2019-06-26T10:52:06.434Z,27.60
2019-06-26T10:54:55.348Z,27.70
2019-06-26T10:57:44.938Z,27.70
2019-06-26T11:00:34.582Z,27.70
2019-06-26T11:03:23.287Z,27.70
2019-06-26T11:06:12.765Z,27.80
2019-06-26T11:09:01.839Z,27.80
2019-06-26T11:11:50.297Z,27.90
2019-06-26T11:14:39.205Z,27.90
2019-06-26T11:17:28.955Z,28.00
2019-06-26T11:20:18.784Z,28.00
2019-06-26T11:23:07.841Z,28.00
2019-06-26T11:25:57.091Z,28.00
2019-06-26T11:28:46.704Z,28.00
2019-06-26T11:31:35.867Z,28.00
2019-06-26T11:34:25.235Z,28.10
2019-06-26T11:37:14.324Z,28.10
2019-06-26T11:40:03.739Z,28.20
2019-06-26T11:42:52.966Z,28.20
2019-06-26T11:45:42.025Z,28.20
2019-06-26T11:48:31.275Z,28.30
2019-06-26T11:51:20.449Z,28.30
2019-06-26T11:54:09.921Z,28.40
2019-06-26T11:56:58.922Z,28.40
2019-06-26T11:59:47.729Z,28.50
2019-06-26T12:02:36.736Z,28.50
2019-06-26T12:05:25.729Z,28.60
2019-06-26T12:08:18.320Z,28.70
2019-06-26T12:11:05.818Z,28.70
2019-06-26T12:13:54.818Z,28.70
2019-06-26T12:16:44.679Z,28.60
2019-06-26T12:19:33.978Z,28.70
2019-06-26T12:22:22.914Z,28.70
2019-06-26T12:25:12.444Z,28.80
2019-06-26T12:28:01.559Z,28.80
2019-06-26T12:30:51.236Z,28.80
2019-06-26T12:33:40.988Z,28.90
2019-06-26T12:36:30.834Z,28.90
2019-06-26T12:39:20.222Z,28.90
2019-06-26T12:42:09.465Z,29.00
2019-06-26T12:44:59.342Z,29.10
2019-06-26T12:47:48.990Z,29.20
2019-06-26T12:50:38.283Z,29.20
2019-06-26T12:53:26.984Z,29.30
2019-06-26T12:56:16.850Z,29.30
2019-06-26T12:59:05.790Z,29.30
2019-06-26T13:01:55.125Z,29.30
2019-06-26T13:04:45.049Z,29.30
2019-06-26T13:07:34.990Z,29.40
2019-06-26T13:10:24.336Z,29.50
2019-06-26T13:13:14.287Z,29.50
2019-06-26T13:16:04.252Z,29.60
2019-06-26T13:18:53.361Z,29.70
2019-06-26T13:21:42.174Z,29.70
2019-06-26T13:24:30.930Z,29.60
2019-06-26T13:27:20.715Z,29.70
2019-06-26T13:30:10.111Z,29.70
2019-06-26T13:33:00.409Z,29.80
2019-06-26T13:35:50.152Z,29.80
2019-06-26T13:38:39.992Z,29.80
2019-06-26T13:41:30.041Z,29.80
2019-06-26T13:44:19.493Z,29.80
2019-06-26T13:47:09.181Z,29.90
2019-06-26T13:49:58.521Z,29.90
2019-06-26T13:52:48.499Z,30.00
2019-06-26T13:55:38.183Z,30.00
2019-06-26T13:58:27.603Z,30.10
2019-06-26T14:01:17.473Z,30.20
2019-06-26T14:04:08.774Z,30.30
2019-06-26T14:06:58.340Z,30.40
2019-06-26T14:09:48.169Z,30.40
2019-06-26T14:12:38.099Z,30.40
2019-06-26T14:15:28.159Z,30.30
2019-06-26T14:18:18.056Z,30.30
2019-06-26T14:21:07.335Z,30.30
2019-06-26T14:23:56.256Z,30.40
2019-06-26T14:26:46.063Z,30.50
2019-06-26T14:29:35.190Z,30.60
2019-06-26T14:32:25.560Z,30.80
2019-06-26T14:35:15.412Z,30.90
2019-06-26T14:38:05.418Z,31.00
2019-06-26T14:40:55.230Z,31.10
2019-06-26T14:43:45.340Z,31.20
2019-06-26T14:46:34.872Z,31.20
2019-06-26T14:49:24.224Z,31.30
2019-06-26T14:52:13.702Z,31.40
2019-06-26T14:55:03.803Z,31.50
2019-06-26T14:57:54.273Z,31.50
2019-06-26T15:00:44.341Z,31.50
2019-06-26T15:03:34.036Z,31.50
2019-06-26T15:06:24.550Z,31.60
2019-06-26T15:09:14.714Z,31.60
2019-06-26T15:12:04.533Z,31.60
2019-06-26T15:14:54.056Z,31.70
2019-06-26T15:17:43.708Z,31.80
2019-06-26T15:20:33.260Z,31.80
2019-06-26T15:23:23.434Z,31.70
2019-06-26T15:26:13.158Z,31.80
2019-06-26T15:29:03.318Z,31.80
2019-06-26T15:31:53.313Z,31.80
2019-06-26T15:34:43.167Z,31.70
2019-06-26T15:37:33.170Z,31.70
2019-06-26T15:40:22.702Z,31.80
2019-06-26T15:43:12.588Z,31.90
2019-06-26T15:46:02.497Z,31.80
2019-06-26T15:48:52.402Z,31.80
2019-06-26T15:51:42.707Z,31.80
2019-06-26T15:54:32.365Z,32.00
2019-06-26T15:57:22.025Z,32.10
2019-06-26T16:00:13.247Z,32.20
2019-06-26T16:03:01.919Z,32.30
2019-06-26T16:05:51.866Z,32.30
2019-06-26T16:08:41.405Z,32.20
2019-06-26T16:11:31.183Z,32.20
2019-06-26T16:14:21.225Z,32.10
2019-06-26T16:17:17.064Z,32.00
2019-06-26T16:20:07.335Z,32.10
2019-06-26T16:22:57.252Z,32.10
2019-06-26T16:25:47.337Z,31.90
2019-06-26T16:28:36.789Z,32.00
2019-06-26T16:31:26.788Z,31.90
2019-06-26T16:34:16.603Z,31.80
2019-06-26T16:37:06.208Z,31.70
2019-06-26T16:39:56.181Z,31.70
2019-06-26T16:42:45.496Z,31.60
2019-06-26T16:45:35.402Z,31.50
2019-06-26T16:48:25.262Z,31.60
2019-06-26T16:51:15.340Z,31.60
2019-06-26T16:54:05.421Z,31.50
2019-06-26T16:56:55.333Z,31.40
2019-06-26T16:59:44.730Z,31.40
2019-06-26T17:02:35.715Z,31.40
2019-06-26T17:05:25.351Z,31.30
2019-06-26T17:08:14.926Z,31.20
2019-06-26T17:11:05.143Z,31.10
2019-06-26T17:13:54.958Z,31.00
2019-06-26T17:16:44.601Z,30.90
2019-06-26T17:19:34.466Z,30.90
2019-06-26T17:22:23.872Z,30.70
2019-06-26T17:25:13.480Z,30.70
2019-06-26T17:28:03.315Z,30.80
2019-06-26T17:30:53.137Z,30.70
2019-06-26T17:33:43.078Z,30.70
2019-06-26T17:36:33.409Z,30.70
2019-06-26T17:39:23.290Z,30.50
2019-06-26T17:42:12.783Z,30.40
2019-06-26T17:45:02.717Z,30.40
2019-06-26T17:47:52.288Z,30.40
2019-06-26T17:50:41.950Z,30.30
2019-06-26T17:53:31.363Z,30.20
2019-06-26T17:56:20.686Z,30.10
2019-06-26T17:59:10.280Z,30.00
2019-06-26T18:02:00.248Z,29.80
2019-06-26T18:04:49.396Z,29.80
2019-06-26T18:07:38.714Z,29.80
2019-06-26T18:10:27.928Z,29.80
2019-06-26T18:13:16.958Z,29.70
2019-06-26T18:16:06.057Z,29.70
2019-06-26T18:18:54.974Z,29.50
2019-06-26T18:21:44.567Z,29.40
2019-06-26T18:24:34.046Z,29.30
2019-06-26T18:27:23.327Z,29.20
2019-06-26T18:29:53.820Z,29.20
2019-06-26T18:32:24.060Z,29.30
2019-06-26T18:34:54.439Z,29.30
2019-06-26T18:37:24.913Z,29.30
2019-06-26T18:39:55.230Z,29.20
2019-06-26T18:42:25.535Z,29.10
2019-06-26T18:44:55.957Z,29.00
2019-06-26T18:47:26.899Z,29.00
2019-06-26T18:49:57.298Z,28.90
2019-06-26T18:52:27.776Z,28.70
2019-06-26T18:55:17.116Z,28.50
2019-06-26T18:58:05.896Z,28.50
2019-06-26T19:00:57.506Z,28.40
2019-06-26T19:03:46.894Z,28.30
2019-06-26T19:06:36.297Z,28.20
2019-06-26T19:09:25.926Z,28.10
2019-06-26T19:12:14.796Z,28.10
2019-06-26T19:15:04.176Z,28.00
2019-06-26T19:17:53.109Z,27.90
2019-06-26T19:20:42.031Z,27.90
2019-06-26T19:23:31.258Z,27.90
2019-06-26T19:26:19.815Z,27.80
2019-06-26T19:28:50.267Z,27.70
2019-06-26T19:31:20.957Z,27.60
2019-06-26T19:33:51.225Z,27.40
2019-06-26T19:36:24.148Z,27.30
2019-06-26T19:38:53.427Z,27.30
2019-06-26T19:41:23.482Z,27.40
2019-06-26T19:43:53.683Z,27.40
2019-06-26T19:46:24.144Z,27.50
2019-06-26T19:48:57.510Z,27.30
2019-06-26T19:51:26.894Z,27.20
2019-06-26T19:53:56.829Z,27.10
2019-06-26T19:56:27.071Z,27.00
2019-06-26T19:58:57.189Z,26.80
2019-06-26T20:01:27.592Z,26.90
2019-06-26T20:03:58.153Z,26.80
2019-06-26T20:06:28.510Z,26.80
2019-06-26T20:08:58.573Z,26.70
2019-06-26T20:11:29.229Z,26.70
2019-06-26T20:13:59.515Z,26.60
2019-06-26T20:16:29.799Z,26.60
2019-06-26T20:19:00.213Z,26.50
2019-06-26T20:21:30.634Z,26.50
2019-06-26T20:24:00.932Z,26.50
2019-06-26T20:26:30.987Z,26.40
2019-06-26T20:29:01.375Z,26.20
2019-06-26T20:31:31.568Z,26.20
2019-06-26T20:34:21.215Z,26.20
2019-06-26T20:37:10.004Z,26.20
2019-06-26T20:39:59.111Z,26.30
2019-06-26T20:42:48.678Z,26.30
2019-06-26T20:45:37.833Z,26.20
2019-06-26T20:48:26.546Z,26.20
2019-06-26T20:51:16.315Z,26.10
2019-06-26T20:54:05.989Z,26.00
2019-06-26T20:56:55.356Z,26.10
2019-06-26T20:59:44.259Z,26.00
2019-06-26T21:02:33.244Z,26.00
2019-06-26T21:05:22.173Z,25.90
2019-06-26T21:08:11.858Z,26.00
2019-06-26T21:11:01.249Z,25.90
2019-06-26T21:13:50.503Z,25.80
2019-06-26T21:16:39.922Z,25.80
2019-06-26T21:19:28.726Z,25.70
2019-06-26T21:22:18.005Z,25.60
2019-06-26T21:25:17.578Z,25.60
2019-06-26T21:27:58.296Z,25.50
2019-06-26T21:30:47.615Z,25.40
2019-06-26T21:33:36.571Z,25.40
2019-06-26T21:36:25.404Z,25.40
2019-06-26T21:39:14.126Z,25.50
2019-06-26T21:42:02.905Z,25.40
2019-06-26T21:44:51.865Z,25.30
2019-06-26T21:47:40.827Z,25.20
2019-06-26T21:50:30.276Z,25.10
2019-06-26T21:53:19.827Z,25.10
2019-06-26T21:56:09.613Z,24.90
2019-06-26T21:58:58.966Z,24.80
2019-06-26T22:01:49.029Z,24.70
2019-06-26T22:04:37.771Z,24.50
2019-06-26T22:07:26.692Z,24.50
2019-06-26T22:10:16.427Z,24.60
2019-06-26T22:13:06.182Z,24.50
2019-06-26T22:15:55.470Z,24.40
2019-06-26T22:18:44.455Z,24.30
2019-06-26T22:21:33.230Z,24.30
2019-06-26T22:24:22.684Z,24.30
2019-06-26T22:27:11.971Z,24.20
2019-06-26T22:30:00.938Z,24.10
2019-06-26T22:32:50.573Z,23.90
2019-06-26T22:35:40.173Z,24.00
2019-06-26T22:38:29.234Z,23.90
2019-06-26T22:41:18.548Z,24.00
2019-06-26T22:44:07.404Z,23.90
2019-06-26T22:46:56.435Z,23.90
2019-06-26T22:49:45.936Z,23.90
2019-06-26T22:52:34.549Z,23.80
2019-06-26T22:55:23.739Z,23.60
2019-06-26T22:58:12.686Z,23.50
2019-06-26T23:01:02.471Z,23.60
2019-06-26T23:03:52.171Z,23.50
2019-06-26T23:06:41.233Z,23.30
2019-06-26T23:09:30.875Z,23.30
2019-06-26T23:12:20.199Z,23.30
2019-06-26T23:15:09.861Z,23.40
2019-06-26T23:17:59.065Z,23.10
2019-06-26T23:20:47.716Z,23.10
2019-06-26T23:23:37.167Z,23.10
2019-06-26T23:26:25.826Z,23.00
2019-06-26T23:29:15.124Z,22.90
2019-06-26T23:32:04.299Z,22.90
2019-06-26T23:34:53.874Z,23.00
2019-06-26T23:37:44.981Z,22.90
2019-06-26T23:40:34.379Z,22.80
2019-06-26T23:43:23.203Z,22.70
2019-06-26T23:46:12.156Z,22.50
2019-06-26T23:49:01.335Z,22.20
2019-06-26T23:51:50.376Z,22.20
2019-06-26T23:54:39.305Z,22.00
2019-06-26T23:57:28.393Z,21.90
